createdAt,value
2019-01-27T07:21:17.066Z,95566.00
2019-01-27T07:24:27.215Z,95564.00
2019-01-27T07:27:41.218Z,95550.00
2019-01-27T07:31:06.868Z,95560.00
2019-01-27T07:34:25.280Z,95554.00
2019-01-27T07:37:48.252Z,95543.00
2019-01-27T07:40:48.153Z,95554.00
2019-01-27T07:43:56.812Z,95548.00
2019-01-27T07:47:13.624Z,95543.00
2019-01-27T07:50:27.435Z,95529.00
2019-01-27T07:53:44.682Z,95533.00
2019-01-27T07:57:07.385Z,95530.00
2019-01-27T08:00:24.192Z,95525.00
2019-01-27T08:03:55.881Z,95520.00
2019-01-27T08:07:06.008Z,95526.00
2019-01-27T08:10:11.229Z,95527.00
2019-01-27T08:13:23.461Z,95518.00
2019-01-27T08:16:36.235Z,95511.00
2019-01-27T08:19:43.660Z,95521.00
2019-01-27T08:23:00.392Z,95515.00
2019-01-27T13:20:19.325Z,95188.00
2019-01-27T13:23:14.239Z,95184.00
2019-01-27T13:26:09.216Z,95169.00
2019-01-27T13:29:04.575Z,95185.00
2019-01-27T13:31:59.491Z,95183.00
2019-01-27T13:34:56.302Z,95158.00
2019-01-27T13:37:50.727Z,95165.00
2019-01-27T13:40:45.627Z,95175.00
2019-01-27T13:43:40.506Z,95171.00
2019-01-27T13:46:35.182Z,95158.00
2019-01-27T13:49:29.875Z,95165.00
2019-01-27T13:52:24.623Z,95159.00
2019-01-27T13:55:22.992Z,95175.00
2019-01-27T13:58:17.684Z,95159.00
2019-01-27T14:01:12.327Z,95146.00
2019-01-27T14:04:06.938Z,95147.00
2019-01-27T14:07:01.976Z,95164.00
2019-01-27T14:09:56.528Z,95143.00
2019-01-27T14:12:51.443Z,95150.00
2019-01-27T14:15:45.927Z,95155.00
2019-01-27T14:18:40.632Z,95158.00
2019-01-27T14:21:35.471Z,95160.00
2019-01-27T14:24:30.303Z,95163.00
2019-01-27T14:27:24.887Z,95152.00
2019-01-27T14:30:25.786Z,95149.00
2019-01-27T14:33:20.173Z,95158.00
2019-01-27T14:36:14.631Z,95169.00
2019-01-27T14:39:09.727Z,95164.00
2019-01-27T14:42:04.403Z,95160.00
2019-01-27T14:44:58.828Z,95156.00
2019-01-27T14:47:53.748Z,95153.00
2019-01-27T14:50:49.843Z,95148.00
2019-01-27T14:53:44.863Z,95142.00
2019-01-27T14:56:39.520Z,95150.00
2019-01-27T14:59:34.167Z,95156.00
2019-01-27T15:02:28.929Z,95132.00
2019-01-27T15:05:23.860Z,95128.00
2019-01-27T15:08:18.705Z,95133.00
2019-01-27T15:11:14.931Z,95142.00
2019-01-27T15:14:09.455Z,95147.00
2019-01-27T15:17:05.029Z,95143.00
2019-01-27T15:19:59.795Z,95145.00
2019-01-27T15:22:54.655Z,95164.00
2019-01-27T15:25:49.425Z,95155.00
2019-01-27T15:28:45.176Z,95152.00
2019-01-27T15:31:40.735Z,95151.00
2019-01-27T15:34:37.276Z,95160.00
2019-01-27T15:37:35.162Z,95164.00
2019-01-27T15:40:33.179Z,95176.00
2019-01-27T15:43:30.180Z,95180.00
2019-01-27T15:46:28.971Z,95187.00
2019-01-27T15:49:28.319Z,95180.00
2019-01-27T15:52:24.815Z,95183.00
2019-01-27T15:55:22.462Z,95178.00
2019-01-27T15:58:18.646Z,95170.00
2019-01-27T16:01:17.214Z,95166.00
2019-01-27T16:04:14.594Z,95146.00
2019-01-27T16:07:12.580Z,95144.00
2019-01-27T16:10:11.533Z,95161.00
2019-01-27T16:13:10.802Z,95173.00
2019-01-27T16:16:06.794Z,95170.00
2019-01-27T16:19:03.499Z,95173.00
2019-01-27T16:22:00.218Z,95164.00
2019-01-27T16:24:58.039Z,95158.00
2019-01-27T16:27:54.918Z,95165.00
2019-01-27T16:31:11.216Z,95169.00
2019-01-27T16:34:32.195Z,95169.00
2019-01-27T16:37:29.049Z,95174.00
2019-01-27T16:40:25.615Z,95167.00
2019-01-27T16:43:21.109Z,95161.00
2019-01-27T16:46:18.956Z,95163.00
2019-01-27T16:49:16.173Z,95162.00
2019-01-27T16:52:13.555Z,95173.00
2019-01-27T16:55:15.005Z,95168.00
2019-01-27T16:58:14.095Z,95172.00
2019-01-27T17:01:13.402Z,95151.00
2019-01-27T17:04:09.819Z,95156.00
2019-01-27T17:07:07.557Z,95163.00
2019-01-27T17:10:09.819Z,95160.00
2019-01-27T17:13:11.104Z,95133.00
2019-01-27T17:16:10.590Z,95134.00
2019-01-27T17:19:08.649Z,95134.00
2019-01-27T17:22:07.775Z,95138.00
2019-01-27T17:25:05.829Z,95149.00
2019-01-27T17:28:09.696Z,95139.00
2019-01-27T17:31:19.852Z,95153.00
2019-01-27T17:34:19.777Z,95144.00
2019-01-27T17:37:27.062Z,95151.00
2019-01-27T17:40:31.171Z,95146.00
2019-01-27T17:43:30.529Z,95143.00
2019-01-27T17:46:27.695Z,95141.00
2019-01-27T17:49:25.818Z,95135.00
2019-01-27T17:52:22.773Z,95124.00
2019-01-27T17:55:43.037Z,95110.00
2019-01-27T17:58:55.363Z,95112.00
2019-01-27T18:02:05.391Z,95113.00
2019-01-27T18:05:31.744Z,95126.00
2019-01-27T18:08:33.369Z,95141.00
2019-01-27T18:11:38.574Z,95146.00
2019-01-27T18:14:38.141Z,95139.00
2019-01-27T18:17:39.402Z,95143.00
2019-01-27T18:20:36.914Z,95146.00
2019-01-27T18:23:35.240Z,95134.00
2019-01-27T18:26:34.531Z,95131.00
2019-01-27T18:29:37.386Z,95122.00
2019-01-27T18:32:37.056Z,95131.00
2019-01-27T18:35:34.621Z,95119.00
2019-01-27T18:38:31.030Z,95131.00
2019-01-27T18:41:30.626Z,95134.00
2019-01-27T18:44:27.325Z,95141.00
2019-01-27T18:47:25.460Z,95139.00
2019-01-27T18:50:22.059Z,95136.00
2019-01-27T18:53:37.140Z,95127.00
2019-01-27T18:56:41.983Z,95137.00
2019-01-27T18:59:47.972Z,95134.00
2019-01-27T19:02:54.977Z,95131.00
2019-01-27T19:06:30.014Z,95131.00
2019-01-27T19:10:01.251Z,95134.00
2019-01-27T19:13:43.762Z,95130.00
2019-01-27T19:16:54.371Z,95129.00
2019-01-27T19:20:07.546Z,95123.00
2019-01-27T19:23:19.828Z,95099.00
2019-01-27T19:26:33.819Z,95095.00
2019-01-27T19:29:51.467Z,95075.00
2019-01-27T19:33:06.154Z,95062.00
2019-01-27T19:36:19.629Z,95038.00
2019-01-27T19:39:31.661Z,95060.00
2019-01-27T19:42:36.384Z,95077.00
2019-01-27T19:45:42.618Z,95072.00
2019-01-27T19:48:56.271Z,95062.00
2019-01-27T19:51:58.987Z,95074.00
2019-01-27T19:55:11.611Z,95080.00
2019-01-27T19:58:17.630Z,95067.00
2019-01-27T20:01:37.362Z,95062.00
2019-01-27T20:04:48.814Z,95080.00
2019-01-27T20:08:08.413Z,95103.00
2019-01-27T20:11:12.630Z,95104.00
2019-01-27T20:14:23.622Z,95122.00
2019-01-27T20:17:48.618Z,95126.00
2019-01-27T20:21:04.883Z,95112.00
2019-01-27T20:24:07.697Z,95126.00
2019-01-27T20:27:30.433Z,95133.00
2019-01-27T20:30:42.874Z,95134.00
2019-01-27T20:34:11.755Z,95150.00
2019-01-27T20:37:28.924Z,95131.00
2019-01-27T20:40:42.911Z,95142.00
2019-01-27T20:43:55.946Z,95137.00
2019-01-27T20:46:59.261Z,95136.00
2019-01-27T20:50:15.932Z,95152.00
2019-01-27T20:53:28.508Z,95155.00
2019-01-27T20:56:54.552Z,95143.00
2019-01-27T20:59:59.885Z,95137.00
2019-01-27T21:03:12.797Z,95139.00
2019-01-27T21:06:19.435Z,95138.00
2019-01-27T21:09:30.238Z,95132.00
2019-01-27T21:12:42.680Z,95136.00
2019-01-27T21:15:45.651Z,95129.00
2019-01-27T21:18:48.279Z,95141.00
2019-01-27T21:21:43.358Z,95136.00
2019-01-27T21:24:37.928Z,95142.00
2019-01-27T21:27:32.771Z,95131.00
2019-01-27T21:30:27.590Z,95132.00
2019-01-27T21:33:22.371Z,95135.00
2019-01-27T21:36:17.321Z,95135.00
2019-01-27T21:39:12.668Z,95127.00
2019-01-27T21:42:07.743Z,95121.00
2019-01-27T21:45:02.717Z,95131.00
2019-01-27T21:47:58.607Z,95115.00
2019-01-27T21:50:53.519Z,95118.00
2019-01-27T21:53:48.354Z,95116.00
2019-01-27T21:56:43.394Z,95123.00
2019-01-27T21:59:38.979Z,95116.00
2019-01-27T22:02:33.725Z,95113.00
2019-01-27T22:05:28.742Z,95099.00
2019-01-27T22:08:23.266Z,95101.00
2019-01-27T22:11:18.181Z,95099.00
2019-01-27T22:14:13.182Z,95099.00
2019-01-27T22:17:07.778Z,95095.00
2019-01-27T22:20:02.619Z,95097.00
2019-01-27T22:22:57.294Z,95095.00
2019-01-27T22:25:53.241Z,95087.00
2019-01-27T22:28:48.121Z,95072.00
2019-01-27T22:31:44.789Z,95065.00
2019-01-27T22:34:39.345Z,95066.00
2019-01-27T22:37:33.934Z,95072.00
2019-01-27T22:40:30.273Z,95068.00
2019-01-27T22:43:25.170Z,95072.00
2019-01-27T22:46:19.885Z,95067.00
2019-01-27T22:49:14.489Z,95067.00
2019-01-27T22:52:09.045Z,95078.00
2019-01-27T22:55:04.016Z,95075.00
2019-01-27T22:57:58.789Z,95071.00
2019-01-27T23:01:02.935Z,95058.00
2019-01-27T23:03:57.429Z,95052.00
2019-01-27T23:06:52.323Z,95052.00
2019-01-27T23:09:46.809Z,95049.00
2019-01-27T23:12:41.861Z,95043.00
2019-01-27T23:15:38.146Z,95035.00
2019-01-27T23:18:32.881Z,95040.00
